KGVT/GVT METAR and TAF weather

Enter ICAO airport designator
Station Type Date Time Source
KGVT METAR 2020/09/26 23:30 UTC NOAA

KGVT 262330Z AUTO 14005KT 10SM CLR 27/20 A2984 RMK AO2


Station Type Date Time Source
KGVT Decoded METAR 2020/09/26 23:30 UTC NOAA

Greenville / Majors, TX, United States (KGVT) 33-04N 096-04W
Sep 26, 2020 - 07:30 PM EDT / 2020.09.26 2330 UTC
Wind: from the SE (140 degrees) at 6 MPH (5 KT):0
Visibility: 10 mile(s):0
Sky conditions: clear
Temperature: 80 F (27 C)
Dew Point: 68 F (20 C)
Relative Humidity: 65%
Pressure (altimeter): 29.84 in. Hg (1010 hPa)
ob: KGVT 262330Z AUTO 14005KT 10SM CLR 27/20 A2984 RMK AO2
cycle: 23

Station Type Date Time Source
KGVT TAF UTC NOAA

Error!

Example: see airport list